sensor_id;sensor_type;location;lat;lon;timestamp;P1;durP1;ratioP1;P2;durP2;ratioP2
8036;SDS011;4061;51.360;7.340;2022-10-01T00:00:55;4.13;;;1.42;;
8036;SDS011;4061;51.360;7.340;2022-10-01T00:03:25;1.67;;;1.58;;
8036;SDS011;4061;51.360;7.340;2022-10-01T00:05:58;2.10;;;1.90;;
8036;SDS011;4061;51.360;7.340;2022-10-01T00:08:26;1.60;;;1.58;;
8036;SDS011;4061;51.360;7.340;2022-10-01T00:10:53;2.25;;;1.70;;
8036;SDS011;4061;51.360;7.340;2022-10-01T00:13:20;1.88;;;1.33;;
8036;SDS011;4061;51.360;7.340;2022-10-01T00:15:48;1.42;;;1.30;;
8036;SDS011;4061;51.360;7.340;2022-10-01T00:18:16;3.40;;;2.03;;
8036;SDS011;4061;51.360;7.340;2022-10-01T00:20:43;2.40;;;2.28;;
8036;SDS011;4061;51.360;7.340;2022-10-01T00:23:11;1.67;;;1.58;;
8036;SDS011;4061;51.360;7.340;2022-10-01T00:25:38;2.30;;;2.00;;
8036;SDS011;4061;51.360;7.340;2022-10-01T00:28:06;2.08;;;1.10;;
8036;SDS011;4061;51.360;7.340;2022-10-01T00:30:33;1.80;;;1.70;;
8036;SDS011;4061;51.360;7.340;2022-10-01T00:33:00;6.65;;;1.73;;
8036;SDS011;4061;51.360;7.340;2022-10-01T00:35:29;1.70;;;1.60;;
8036;SDS011;4061;51.360;7.340;2022-10-01T00:37:56;2.17;;;1.50;;
8036;SDS011;4061;51.360;7.340;2022-10-01T00:40:23;2.00;;;1.80;;
8036;SDS011;4061;51.360;7.340;2022-10-01T00:42:50;1.70;;;1.60;;
8036;SDS011;4061;51.360;7.340;2022-10-01T00:45:18;1.85;;;1.75;;
8036;SDS011;4061;51.360;7.340;2022-10-01T00:47:46;5.78;;;1.40;;
8036;SDS011;4061;51.360;7.340;2022-10-01T00:50:17;3.55;;;1.98;;
8036;SDS011;4061;51.360;7.340;2022-10-01T00:52:47;1.70;;;1.50;;
8036;SDS011;4061;51.360;7.340;2022-10-01T00:55:16;1.50;;;1.50;;
8036;SDS011;4061;51.360;7.340;2022-10-01T00:57:45;1.42;;;1.40;;
8036;SDS011;4061;51.360;7.340;2022-10-01T01:00:13;1.50;;;1.40;;
8036;SDS011;4061;51.360;7.340;2022-10-01T01:02:40;3.53;;;1.70;;
8036;SDS011;4061;51.360;7.340;2022-10-01T01:05:08;1.88;;;1.70;;
8036;SDS011;4061;51.360;7.340;2022-10-01T01:07:37;1.65;;;1.52;;
8036;SDS011;4061;51.360;7.340;2022-10-01T01:10:10;2.63;;;2.10;;
8036;SDS011;4061;51.360;7.340;2022-10-01T01:12:42;1.67;;;1.60;;
8036;SDS011;4061;51.360;7.340;2022-10-01T01:15:13;1.85;;;1.73;;
8036;SDS011;4061;51.360;7.340;2022-10-01T01:17:43;1.50;;;1.40;;
8036;SDS011;4061;51.360;7.340;2022-10-01T01:20:21;2.10;;;1.90;;
8036;SDS011;4061;51.360;7.340;2022-10-01T01:22:54;1.83;;;1.73;;
8036;SDS011;4061;51.360;7.340;2022-10-01T01:25:26;3.80;;;1.50;;
8036;SDS011;4061;51.360;7.340;2022-10-01T01:28:02;2.72;;;2.33;;
8036;SDS011;4061;51.360;7.340;2022-10-01T01:30:30;2.22;;;2.03;;
8036;SDS011;4061;51.360;7.340;2022-10-01T01:32:59;5.43;;;1.97;;
8036;SDS011;4061;51.360;7.340;2022-10-01T01:35:29;2.70;;;1.90;;
8036;SDS011;4061;51.360;7.340;2022-10-01T01:37:58;7.13;;;2.30;;
8036;SDS011;4061;51.360;7.340;2022-10-01T01:40:27;5.57;;;2.22;;
8036;SDS011;4061;51.360;7.340;2022-10-01T01:42:56;2.53;;;1.90;;
8036;SDS011;4061;51.360;7.340;2022-10-01T01:45:25;2.47;;;1.87;;
8036;SDS011;4061;51.360;7.340;2022-10-01T01:47:54;2.95;;;1.60;;
8036;SDS011;4061;51.360;7.340;2022-10-01T01:50:23;4.35;;;1.77;;
8036;SDS011;4061;51.360;7.340;2022-10-01T01:52:51;1.80;;;1.70;;
8036;SDS011;4061;51.360;7.340;2022-10-01T01:55:18;3.40;;;1.83;;
8036;SDS011;4061;51.360;7.340;2022-10-01T01:57:46;3.50;;;2.33;;
8036;SDS011;4061;51.360;7.340;2022-10-01T02:00:13;2.33;;;2.13;;
8036;SDS011;4061;51.360;7.340;2022-10-01T02:02:45;2.33;;;2.23;;
8036;SDS011;4061;51.360;7.340;2022-10-01T02:05:14;2.20;;;1.97;;
8036;SDS011;4061;51.360;7.340;2022-10-01T02:07:47;2.37;;;2.10;;
8036;SDS011;4061;51.360;7.340;2022-10-01T02:10:22;2.20;;;2.10;;
8036;SDS011;4061;51.360;7.340;2022-10-01T02:12:56;2.87;;;1.83;;
8036;SDS011;4061;51.360;7.340;2022-10-01T02:15:30;1.03;;;1.03;;
8036;SDS011;4061;51.360;7.340;2022-10-01T02:18:05;1.67;;;1.57;;
8036;SDS011;4061;51.360;7.340;2022-10-01T02:20:35;2.57;;;1.70;;
8036;SDS011;4061;51.360;7.340;2022-10-01T02:23:04;1.07;;;1.07;;
8036;SDS011;4061;51.360;7.340;2022-10-01T02:25:35;2.10;;;1.90;;
8036;SDS011;4061;51.360;7.340;2022-10-01T02:28:04;2.67;;;1.40;;
8036;SDS011;4061;51.360;7.340;2022-10-01T02:30:33;2.17;;;2.00;;
8036;SDS011;4061;51.360;7.340;2022-10-01T02:33:00;3.67;;;1.67;;
8036;SDS011;4061;51.360;7.340;2022-10-01T02:35:30;2.10;;;1.73;;
8036;SDS011;4061;51.360;7.340;2022-10-01T02:37:59;1.10;;;1.10;;
8036;SDS011;4061;51.360;7.340;2022-10-01T02:40:28;2.00;;;1.70;;
8036;SDS011;4061;51.360;7.340;2022-10-01T02:42:57;2.10;;;1.77;;
8036;SDS011;4061;51.360;7.340;2022-10-01T02:45:26;2.17;;;1.73;;
8036;SDS011;4061;51.360;7.340;2022-10-01T02:47:56;2.17;;;1.97;;
8036;SDS011;4061;51.360;7.340;2022-10-01T02:50:25;1.83;;;1.73;;
8036;SDS011;4061;51.360;7.340;2022-10-01T02:52:57;2.13;;;1.80;;
8036;SDS011;4061;51.360;7.340;2022-10-01T02:55:26;2.37;;;2.17;;
8036;SDS011;4061;51.360;7.340;2022-10-01T02:57:55;4.07;;;1.87;;
8036;SDS011;4061;51.360;7.340;2022-10-01T03:00:21;2.83;;;1.83;;
8036;SDS011;4061;51.360;7.340;2022-10-01T03:02:51;4.03;;;2.10;;
8036;SDS011;4061;51.360;7.340;2022-10-01T03:05:18;2.07;;;1.87;;
8036;SDS011;4061;51.360;7.340;2022-10-01T03:07:46;2.15;;;2.05;;
8036;SDS011;4061;51.360;7.340;2022-10-01T03:10:14;1.80;;;1.67;;
8036;SDS011;4061;51.360;7.340;2022-10-01T03:12:42;1.73;;;1.63;;
8036;SDS011;4061;51.360;7.340;2022-10-01T03:15:10;1.83;;;1.73;;
8036;SDS011;4061;51.360;7.340;2022-10-01T03:17:37;1.80;;;1.67;;
8036;SDS011;4061;51.360;7.340;2022-10-01T03:20:05;2.07;;;1.97;;
8036;SDS011;4061;51.360;7.340;2022-10-01T03:22:33;2.30;;;1.63;;
8036;SDS011;4061;51.360;7.340;2022-10-01T03:25:00;4.40;;;2.33;;
8036;SDS011;4061;51.360;7.340;2022-10-01T03:27:29;3.33;;;1.97;;
8036;SDS011;4061;51.360;7.340;2022-10-01T03:29:56;4.07;;;1.63;;
8036;SDS011;4061;51.360;7.340;2022-10-01T03:32:23;4.23;;;1.60;;
8036;SDS011;4061;51.360;7.340;2022-10-01T03:34:50;2.17;;;1.93;;
8036;SDS011;4061;51.360;7.340;2022-10-01T03:37:17;1.80;;;1.53;;
8036;SDS011;4061;51.360;7.340;2022-10-01T03:39:44;1.73;;;1.63;;
8036;SDS011;4061;51.360;7.340;2022-10-01T03:42:12;2.20;;;2.00;;
8036;SDS011;4061;51.360;7.340;2022-10-01T03:44:42;2.63;;;1.73;;
8036;SDS011;4061;51.360;7.340;2022-10-01T03:47:09;3.03;;;2.75;;
8036;SDS011;4061;51.360;7.340;2022-10-01T03:49:36;1.07;;;1.07;;
8036;SDS011;4061;51.360;7.340;2022-10-01T03:52:04;2.53;;;1.80;;
8036;SDS011;4061;51.360;7.340;2022-10-01T03:54:31;1.07;;;0.93;;
8036;SDS011;4061;51.360;7.340;2022-10-01T03:56:58;3.27;;;1.53;;
8036;SDS011;4061;51.360;7.340;2022-10-01T03:59:26;1.23;;;1.23;;
8036;SDS011;4061;51.360;7.340;2022-10-01T04:01:54;2.57;;;1.70;;
8036;SDS011;4061;51.360;7.340;2022-10-01T04:04:22;1.33;;;1.23;;
8036;SDS011;4061;51.360;7.340;2022-10-01T04:06:49;2.93;;;1.60;;
8036;SDS011;4061;51.360;7.340;2022-10-01T04:09:16;1.30;;;1.30;;
8036;SDS011;4061;51.360;7.340;2022-10-01T04:11:43;0.90;;;0.90;;
8036;SDS011;4061;51.360;7.340;2022-10-01T04:14:10;1.40;;;1.40;;
8036;SDS011;4061;51.360;7.340;2022-10-01T04:16:38;1.37;;;1.27;;
8036;SDS011;4061;51.360;7.340;2022-10-01T04:19:06;1.00;;;1.00;;
8036;SDS011;4061;51.360;7.340;2022-10-01T04:21:33;1.10;;;1.10;;
8036;SDS011;4061;51.360;7.340;2022-10-01T04:24:02;1.13;;;1.13;;
8036;SDS011;4061;51.360;7.340;2022-10-01T04:26:29;1.80;;;0.90;;
8036;SDS011;4061;51.360;7.340;2022-10-01T04:28:56;1.60;;;0.70;;
8036;SDS011;4061;51.360;7.340;2022-10-01T04:31:23;0.90;;;0.90;;
8036;SDS011;4061;51.360;7.340;2022-10-01T04:33:51;0.87;;;0.87;;
8036;SDS011;4061;51.360;7.340;2022-10-01T04:36:20;1.00;;;1.00;;
8036;SDS011;4061;51.360;7.340;2022-10-01T04:38:49;0.90;;;0.90;;
8036;SDS011;4061;51.360;7.340;2022-10-01T04:41:16;0.70;;;0.70;;
8036;SDS011;4061;51.360;7.340;2022-10-01T04:43:44;0.80;;;0.80;;
8036;SDS011;4061;51.360;7.340;2022-10-01T04:46:12;0.70;;;0.70;;
8036;SDS011;4061;51.360;7.340;2022-10-01T04:48:39;0.90;;;0.90;;
8036;SDS011;4061;51.360;7.340;2022-10-01T04:51:07;0.90;;;0.90;;
8036;SDS011;4061;51.360;7.340;2022-10-01T04:53:35;1.65;;;0.93;;
8036;SDS011;4061;51.360;7.340;2022-10-01T04:56:02;0.90;;;0.90;;
8036;SDS011;4061;51.360;7.340;2022-10-01T04:58:30;0.57;;;0.57;;
8036;SDS011;4061;51.360;7.340;2022-10-01T05:00:57;2.23;;;0.80;;
8036;SDS011;4061;51.360;7.340;2022-10-01T05:03:24;0.40;;;0.40;;
8036;SDS011;4061;51.360;7.340;2022-10-01T05:05:52;0.50;;;0.50;;
8036;SDS011;4061;51.360;7.340;2022-10-01T05:08:19;0.70;;;0.70;;
8036;SDS011;4061;51.360;7.340;2022-10-01T05:10:48;2.50;;;0.77;;
8036;SDS011;4061;51.360;7.340;2022-10-01T05:13:15;1.00;;;1.00;;
8036;SDS011;4061;51.360;7.340;2022-10-01T05:15:43;1.25;;;0.85;;
8036;SDS011;4061;51.360;7.340;2022-10-01T05:18:10;0.93;;;0.70;;
8036;SDS011;4061;51.360;7.340;2022-10-01T05:20:37;0.82;;;0.82;;
8036;SDS011;4061;51.360;7.340;2022-10-01T05:23:05;0.68;;;0.40;;
8036;SDS011;4061;51.360;7.340;2022-10-01T05:25:32;0.75;;;0.75;;
8036;SDS011;4061;51.360;7.340;2022-10-01T05:28:01;1.30;;;0.50;;
8036;SDS011;4061;51.360;7.340;2022-10-01T05:30:29;0.50;;;0.50;;
8036;SDS011;4061;51.360;7.340;2022-10-01T05:32:57;0.40;;;0.40;;
8036;SDS011;4061;51.360;7.340;2022-10-01T05:35:25;0.30;;;0.30;;
8036;SDS011;4061;51.360;7.340;2022-10-01T05:37:53;0.47;;;0.40;;
8036;SDS011;4061;51.360;7.340;2022-10-01T05:40:20;0.50;;;0.50;;
8036;SDS011;4061;51.360;7.340;2022-10-01T05:42:52;0.60;;;0.60;;
8036;SDS011;4061;51.360;7.340;2022-10-01T05:45:21;1.07;;;0.70;;
8036;SDS011;4061;51.360;7.340;2022-10-01T05:47:54;0.52;;;0.30;;
8036;SDS011;4061;51.360;7.340;2022-10-01T05:50:22;0.50;;;0.50;;
8036;SDS011;4061;51.360;7.340;2022-10-01T05:52:50;1.95;;;0.43;;
8036;SDS011;4061;51.360;7.340;2022-10-01T05:55:19;0.40;;;0.40;;
8036;SDS011;4061;51.360;7.340;2022-10-01T05:57:53;0.40;;;0.40;;
8036;SDS011;4061;51.360;7.340;2022-10-01T06:00:22;0.20;;;0.20;;
8036;SDS011;4061;51.360;7.340;2022-10-01T06:02:52;2.43;;;0.33;;
8036;SDS011;4061;51.360;7.340;2022-10-01T06:05:19;1.02;;;0.30;;
8036;SDS011;4061;51.360;7.340;2022-10-01T06:07:47;0.47;;;0.20;;
8036;SDS011;4061;51.360;7.340;2022-10-01T06:10:14;0.10;;;0.10;;
8036;SDS011;4061;51.360;7.340;2022-10-01T06:12:41;0.90;;;0.28;;
8036;SDS011;4061;51.360;7.340;2022-10-01T06:15:09;0.38;;;0.38;;
8036;SDS011;4061;51.360;7.340;2022-10-01T06:17:38;0.20;;;0.20;;
8036;SDS011;4061;51.360;7.340;2022-10-01T06:20:12;0.22;;;0.22;;
8036;SDS011;4061;51.360;7.340;2022-10-01T06:22:40;0.98;;;0.20;;
8036;SDS011;4061;51.360;7.340;2022-10-01T06:25:08;0.10;;;0.10;;
8036;SDS011;4061;51.360;7.340;2022-10-01T06:27:36;0.15;;;0.15;;
8036;SDS011;4061;51.360;7.340;2022-10-01T06:30:03;0.20;;;0.20;;
8036;SDS011;4061;51.360;7.340;2022-10-01T06:32:30;0.83;;;0.13;;
8036;SDS011;4061;51.360;7.340;2022-10-01T06:34:59;0.20;;;0.20;;
8036;SDS011;4061;51.360;7.340;2022-10-01T06:37:26;0.85;;;0.20;;
8036;SDS011;4061;51.360;7.340;2022-10-01T06:39:53;0.20;;;0.20;;
8036;SDS011;4061;51.360;7.340;2022-10-01T06:42:21;7.22;;;1.15;;
8036;SDS011;4061;51.360;7.340;2022-10-01T06:44:48;0.35;;;0.10;;
8036;SDS011;4061;51.360;7.340;2022-10-01T06:47:15;1.50;;;0.25;;
8036;SDS011;4061;51.360;7.340;2022-10-01T06:49:42;0.43;;;0.28;;
8036;SDS011;4061;51.360;7.340;2022-10-01T06:52:11;0.52;;;0.20;;
8036;SDS011;4061;51.360;7.340;2022-10-01T06:54:55;0.20;;;0.20;;
8036;SDS011;4061;51.360;7.340;2022-10-01T06:57:24;0.28;;;0.20;;
8036;SDS011;4061;51.360;7.340;2022-10-01T06:59:51;0.20;;;0.20;;
8036;SDS011;4061;51.360;7.340;2022-10-01T07:02:20;0.10;;;0.10;;
8036;SDS011;4061;51.360;7.340;2022-10-01T07:04:48;1.73;;;0.38;;
8036;SDS011;4061;51.360;7.340;2022-10-01T07:07:16;0.20;;;0.20;;
8036;SDS011;4061;51.360;7.340;2022-10-01T07:09:43;0.20;;;0.20;;
8036;SDS011;4061;51.360;7.340;2022-10-01T07:12:10;0.32;;;0.28;;
8036;SDS011;4061;51.360;7.340;2022-10-01T07:14:38;0.38;;;0.38;;
8036;SDS011;4061;51.360;7.340;2022-10-01T07:17:05;0.30;;;0.30;;
8036;SDS011;4061;51.360;7.340;2022-10-01T07:19:32;0.40;;;0.40;;
8036;SDS011;4061;51.360;7.340;2022-10-01T07:21:59;0.45;;;0.43;;
8036;SDS011;4061;51.360;7.340;2022-10-01T07:24:28;0.30;;;0.30;;
8036;SDS011;4061;51.360;7.340;2022-10-01T07:26:55;0.40;;;0.40;;
8036;SDS011;4061;51.360;7.340;2022-10-01T07:29:22;0.30;;;0.30;;
8036;SDS011;4061;51.360;7.340;2022-10-01T07:31:49;2.30;;;0.52;;
8036;SDS011;4061;51.360;7.340;2022-10-01T07:34:16;0.60;;;0.60;;
8036;SDS011;4061;51.360;7.340;2022-10-01T07:36:44;0.40;;;0.40;;
8036;SDS011;4061;51.360;7.340;2022-10-01T07:39:11;0.90;;;0.90;;
8036;SDS011;4061;51.360;7.340;2022-10-01T07:41:40;0.40;;;0.40;;
8036;SDS011;4061;51.360;7.340;2022-10-01T07:44:07;0.45;;;0.45;;
8036;SDS011;4061;51.360;7.340;2022-10-01T07:46:36;0.70;;;0.70;;
8036;SDS011;4061;51.360;7.340;2022-10-01T07:49:03;1.95;;;0.57;;
8036;SDS011;4061;51.360;7.340;2022-10-01T07:51:30;0.70;;;0.57;;
8036;SDS011;4061;51.360;7.340;2022-10-01T07:53:58;0.55;;;0.55;;
8036;SDS011;4061;51.360;7.340;2022-10-01T07:56:25;0.60;;;0.60;;
8036;SDS011;4061;51.360;7.340;2022-10-01T07:58:54;1.75;;;0.75;;
8036;SDS011;4061;51.360;7.340;2022-10-01T08:01:21;0.50;;;0.50;;
8036;SDS011;4061;51.360;7.340;2022-10-01T08:03:49;1.17;;;0.85;;
8036;SDS011;4061;51.360;7.340;2022-10-01T08:06:16;0.95;;;0.95;;
8036;SDS011;4061;51.360;7.340;2022-10-01T08:08:43;0.93;;;0.93;;
8036;SDS011;4061;51.360;7.340;2022-10-01T08:11:11;3.63;;;1.00;;
8036;SDS011;4061;51.360;7.340;2022-10-01T08:13:41;2.47;;;1.30;;
8036;SDS011;4061;51.360;7.340;2022-10-01T08:16:11;1.95;;;1.00;;
8036;SDS011;4061;51.360;7.340;2022-10-01T08:18:38;1.48;;;1.25;;
8036;SDS011;4061;51.360;7.340;2022-10-01T08:21:06;1.40;;;1.38;;
8036;SDS011;4061;51.360;7.340;2022-10-01T08:23:33;7.60;;;1.98;;
8036;SDS011;4061;51.360;7.340;2022-10-01T08:26:01;1.58;;;1.48;;
8036;SDS011;4061;51.360;7.340;2022-10-01T08:28:28;1.80;;;1.25;;
8036;SDS011;4061;51.360;7.340;2022-10-01T08:30:55;1.05;;;1.05;;
8036;SDS011;4061;51.360;7.340;2022-10-01T08:33:24;3.22;;;1.38;;
8036;SDS011;4061;51.360;7.340;2022-10-01T08:35:51;1.10;;;1.10;;
8036;SDS011;4061;51.360;7.340;2022-10-01T08:38:18;1.05;;;1.05;;
8036;SDS011;4061;51.360;7.340;2022-10-01T08:40:46;1.08;;;1.00;;
8036;SDS011;4061;51.360;7.340;2022-10-01T08:43:21;1.10;;;1.08;;
8036;SDS011;4061;51.360;7.340;2022-10-01T08:45:51;1.02;;;1.02;;
8036;SDS011;4061;51.360;7.340;2022-10-01T08:48:23;1.02;;;1.02;;
8036;SDS011;4061;51.360;7.340;2022-10-01T08:50:54;1.45;;;1.05;;
8036;SDS011;4061;51.360;7.340;2022-10-01T08:53:26;1.33;;;1.23;;
8036;SDS011;4061;51.360;7.340;2022-10-01T08:55:54;2.65;;;1.17;;
8036;SDS011;4061;51.360;7.340;2022-10-01T08:58:22;1.50;;;1.50;;
8036;SDS011;4061;51.360;7.340;2022-10-01T09:00:51;1.20;;;1.20;;
8036;SDS011;4061;51.360;7.340;2022-10-01T09:03:19;3.53;;;1.75;;
8036;SDS011;4061;51.360;7.340;2022-10-01T09:05:52;1.42;;;1.33;;
8036;SDS011;4061;51.360;7.340;2022-10-01T09:08:25;1.83;;;1.70;;
8036;SDS011;4061;51.360;7.340;2022-10-01T09:11:10;2.72;;;1.45;;
8036;SDS011;4061;51.360;7.340;2022-10-01T09:13:49;4.55;;;1.00;;
8036;SDS011;4061;51.360;7.340;2022-10-01T09:16:22;2.85;;;1.60;;
8036;SDS011;4061;51.360;7.340;2022-10-01T09:18:53;1.65;;;1.50;;
8036;SDS011;4061;51.360;7.340;2022-10-01T09:21:27;1.67;;;1.58;;
8036;SDS011;4061;51.360;7.340;2022-10-01T09:24:02;1.27;;;1.20;;
8036;SDS011;4061;51.360;7.340;2022-10-01T09:26:30;1.33;;;1.33;;
8036;SDS011;4061;51.360;7.340;2022-10-01T09:28:58;2.50;;;1.60;;
8036;SDS011;4061;51.360;7.340;2022-10-01T09:31:26;3.10;;;1.40;;
8036;SDS011;4061;51.360;7.340;2022-10-01T09:33:55;1.45;;;1.35;;
8036;SDS011;4061;51.360;7.340;2022-10-01T09:36:25;1.33;;;1.33;;
8036;SDS011;4061;51.360;7.340;2022-10-01T09:38:58;1.50;;;1.40;;
8036;SDS011;4061;51.360;7.340;2022-10-01T09:41:29;1.10;;;1.10;;
8036;SDS011;4061;51.360;7.340;2022-10-01T09:43:56;0.95;;;0.95;;
8036;SDS011;4061;51.360;7.340;2022-10-01T09:46:23;2.45;;;1.23;;
8036;SDS011;4061;51.360;7.340;2022-10-01T09:48:53;0.98;;;0.98;;
8036;SDS011;4061;51.360;7.340;2022-10-01T09:51:22;2.50;;;1.30;;
8036;SDS011;4061;51.360;7.340;2022-10-01T09:53:53;4.13;;;1.40;;
8036;SDS011;4061;51.360;7.340;2022-10-01T09:56:25;1.45;;;1.30;;
8036;SDS011;4061;51.360;7.340;2022-10-01T09:58:57;1.42;;;1.20;;
8036;SDS011;4061;51.360;7.340;2022-10-01T10:01:27;1.88;;;1.50;;
8036;SDS011;4061;51.360;7.340;2022-10-01T10:03:56;2.88;;;1.42;;
8036;SDS011;4061;51.360;7.340;2022-10-01T10:06:24;3.17;;;1.60;;
8036;SDS011;4061;51.360;7.340;2022-10-01T10:08:52;1.38;;;1.38;;
8036;SDS011;4061;51.360;7.340;2022-10-01T10:11:21;1.58;;;1.08;;
8036;SDS011;4061;51.360;7.340;2022-10-01T10:13:49;3.83;;;1.30;;
8036;SDS011;4061;51.360;7.340;2022-10-01T10:16:18;1.40;;;1.30;;
8036;SDS011;4061;51.360;7.340;2022-10-01T10:18:48;1.60;;;0.98;;
8036;SDS011;4061;51.360;7.340;2022-10-01T10:21:19;3.45;;;0.93;;
8036;SDS011;4061;51.360;7.340;2022-10-01T10:23:48;0.70;;;0.70;;
8036;SDS011;4061;51.360;7.340;2022-10-01T10:26:18;2.17;;;0.80;;
8036;SDS011;4061;51.360;7.340;2022-10-01T10:28:46;0.80;;;0.80;;
8036;SDS011;4061;51.360;7.340;2022-10-01T10:31:13;0.85;;;0.73;;
8036;SDS011;4061;51.360;7.340;2022-10-01T10:33:47;2.33;;;1.00;;
8036;SDS011;4061;51.360;7.340;2022-10-01T10:36:16;0.70;;;0.70;;
8036;SDS011;4061;51.360;7.340;2022-10-01T10:38:45;1.00;;;1.00;;
8036;SDS011;4061;51.360;7.340;2022-10-01T10:41:14;4.85;;;1.02;;
8036;SDS011;4061;51.360;7.340;2022-10-01T10:43:43;0.88;;;0.73;;
8036;SDS011;4061;51.360;7.340;2022-10-01T10:46:18;0.70;;;0.70;;
8036;SDS011;4061;51.360;7.340;2022-10-01T10:48:48;2.67;;;0.85;;
8036;SDS011;4061;51.360;7.340;2022-10-01T10:51:22;4.88;;;0.52;;
8036;SDS011;4061;51.360;7.340;2022-10-01T10:53:51;0.50;;;0.50;;
8036;SDS011;4061;51.360;7.340;2022-10-01T10:56:19;1.75;;;0.60;;
8036;SDS011;4061;51.360;7.340;2022-10-01T10:58:47;1.58;;;0.60;;
8036;SDS011;4061;51.360;7.340;2022-10-01T11:01:15;1.20;;;0.50;;
8036;SDS011;4061;51.360;7.340;2022-10-01T11:03:45;0.75;;;0.30;;
8036;SDS011;4061;51.360;7.340;2022-10-01T11:06:15;0.50;;;0.50;;
8036;SDS011;4061;51.360;7.340;2022-10-01T11:08:43;1.23;;;1.10;;
8036;SDS011;4061;51.360;7.340;2022-10-01T11:11:23;2.25;;;0.50;;
8036;SDS011;4061;51.360;7.340;2022-10-01T11:14:04;2.63;;;0.60;;
8036;SDS011;4061;51.360;7.340;2022-10-01T11:16:42;6.32;;;0.75;;
8036;SDS011;4061;51.360;7.340;2022-10-01T11:19:17;0.82;;;0.77;;
8036;SDS011;4061;51.360;7.340;2022-10-01T11:22:04;2.60;;;0.63;;
8036;SDS011;4061;51.360;7.340;2022-10-01T11:24:45;2.97;;;0.55;;
8036;SDS011;4061;51.360;7.340;2022-10-01T11:27:17;2.63;;;0.95;;
8036;SDS011;4061;51.360;7.340;2022-10-01T11:29:50;5.13;;;1.15;;
8036;SDS011;4061;51.360;7.340;2022-10-01T11:32:21;2.97;;;0.77;;
8036;SDS011;4061;51.360;7.340;2022-10-01T11:34:55;2.45;;;0.65;;
8036;SDS011;4061;51.360;7.340;2022-10-01T11:37:36;4.28;;;0.68;;
8036;SDS011;4061;51.360;7.340;2022-10-01T11:40:11;3.22;;;0.70;;
8036;SDS011;4061;51.360;7.340;2022-10-01T11:42:40;2.20;;;1.10;;
8036;SDS011;4061;51.360;7.340;2022-10-01T11:45:12;4.32;;;0.80;;
8036;SDS011;4061;51.360;7.340;2022-10-01T11:47:40;4.00;;;0.60;;
8036;SDS011;4061;51.360;7.340;2022-10-01T11:50:12;4.70;;;1.05;;
8036;SDS011;4061;51.360;7.340;2022-10-01T11:52:42;4.47;;;1.02;;
8036;SDS011;4061;51.360;7.340;2022-10-01T11:55:17;4.15;;;0.88;;
8036;SDS011;4061;51.360;7.340;2022-10-01T11:58:05;2.58;;;1.33;;
8036;SDS011;4061;51.360;7.340;2022-10-01T12:00:54;3.83;;;1.52;;
8036;SDS011;4061;51.360;7.340;2022-10-01T12:03:26;2.58;;;1.00;;
8036;SDS011;4061;51.360;7.340;2022-10-01T12:05:55;5.28;;;1.35;;
8036;SDS011;4061;51.360;7.340;2022-10-01T12:08:25;1.80;;;0.93;;
8036;SDS011;4061;51.360;7.340;2022-10-01T12:10:54;3.78;;;1.10;;
8036;SDS011;4061;51.360;7.340;2022-10-01T12:13:26;1.23;;;0.70;;
8036;SDS011;4061;51.360;7.340;2022-10-01T12:15:56;4.30;;;1.00;;
8036;SDS011;4061;51.360;7.340;2022-10-01T12:18:26;6.15;;;1.30;;
8036;SDS011;4061;51.360;7.340;2022-10-01T12:20:56;2.33;;;1.20;;
8036;SDS011;4061;51.360;7.340;2022-10-01T12:23:27;1.70;;;0.88;;
8036;SDS011;4061;51.360;7.340;2022-10-01T12:25:58;5.78;;;0.90;;
8036;SDS011;4061;51.360;7.340;2022-10-01T12:28:29;7.32;;;1.35;;
8036;SDS011;4061;51.360;7.340;2022-10-01T12:30:59;3.45;;;0.90;;
8036;SDS011;4061;51.360;7.340;2022-10-01T12:33:35;4.38;;;1.00;;
8036;SDS011;4061;51.360;7.340;2022-10-01T12:36:06;1.75;;;0.80;;
8036;SDS011;4061;51.360;7.340;2022-10-01T12:38:43;6.10;;;1.10;;
8036;SDS011;4061;51.360;7.340;2022-10-01T12:41:16;4.00;;;1.25;;
8036;SDS011;4061;51.360;7.340;2022-10-01T12:43:57;6.25;;;1.00;;
8036;SDS011;4061;51.360;7.340;2022-10-01T12:46:30;0.63;;;0.63;;
8036;SDS011;4061;51.360;7.340;2022-10-01T12:49:00;5.57;;;1.25;;
8036;SDS011;4061;51.360;7.340;2022-10-01T12:51:39;3.13;;;0.57;;
8036;SDS011;4061;51.360;7.340;2022-10-01T12:54:16;6.32;;;1.00;;
8036;SDS011;4061;51.360;7.340;2022-10-01T12:56:47;2.92;;;0.82;;
8036;SDS011;4061;51.360;7.340;2022-10-01T12:59:21;2.72;;;0.70;;
8036;SDS011;4061;51.360;7.340;2022-10-01T13:01:55;1.02;;;0.70;;
8036;SDS011;4061;51.360;7.340;2022-10-01T13:04:30;4.38;;;0.88;;
8036;SDS011;4061;51.360;7.340;2022-10-01T13:07:05;4.18;;;0.70;;
8036;SDS011;4061;51.360;7.340;2022-10-01T13:09:37;4.30;;;0.80;;
8036;SDS011;4061;51.360;7.340;2022-10-01T13:12:11;5.68;;;0.88;;
8036;SDS011;4061;51.360;7.340;2022-10-01T13:14:42;2.83;;;0.88;;
8036;SDS011;4061;51.360;7.340;2022-10-01T13:17:10;6.80;;;0.82;;
8036;SDS011;4061;51.360;7.340;2022-10-01T13:19:42;6.35;;;0.90;;
8036;SDS011;4061;51.360;7.340;2022-10-01T13:22:15;5.65;;;1.08;;
8036;SDS011;4061;51.360;7.340;2022-10-01T13:24:46;5.80;;;0.80;;
8036;SDS011;4061;51.360;7.340;2022-10-01T13:27:16;2.08;;;0.50;;
8036;SDS011;4061;51.360;7.340;2022-10-01T13:29:48;4.88;;;0.75;;
8036;SDS011;4061;51.360;7.340;2022-10-01T13:32:24;3.10;;;1.35;;
8036;SDS011;4061;51.360;7.340;2022-10-01T13:34:52;4.53;;;0.80;;
8036;SDS011;4061;51.360;7.340;2022-10-01T13:37:29;2.63;;;0.60;;
8036;SDS011;4061;51.360;7.340;2022-10-01T13:39:59;3.08;;;0.90;;
8036;SDS011;4061;51.360;7.340;2022-10-01T13:42:26;5.03;;;0.80;;
8036;SDS011;4061;51.360;7.340;2022-10-01T13:44:55;7.93;;;1.02;;
8036;SDS011;4061;51.360;7.340;2022-10-01T13:47:23;7.20;;;1.13;;
8036;SDS011;4061;51.360;7.340;2022-10-01T13:49:55;4.10;;;0.55;;
8036;SDS011;4061;51.360;7.340;2022-10-01T13:52:23;1.77;;;0.60;;
8036;SDS011;4061;51.360;7.340;2022-10-01T13:54:50;6.72;;;1.27;;
8036;SDS011;4061;51.360;7.340;2022-10-01T13:57:26;7.32;;;1.20;;
8036;SDS011;4061;51.360;7.340;2022-10-01T13:59:57;1.58;;;0.93;;
8036;SDS011;4061;51.360;7.340;2022-10-01T14:02:27;4.35;;;1.42;;
8036;SDS011;4061;51.360;7.340;2022-10-01T14:04:55;3.20;;;0.80;;
8036;SDS011;4061;51.360;7.340;2022-10-01T14:07:29;9.73;;;0.73;;
8036;SDS011;4061;51.360;7.340;2022-10-01T14:09:58;8.77;;;1.35;;
8036;SDS011;4061;51.360;7.340;2022-10-01T14:12:28;5.07;;;1.20;;
8036;SDS011;4061;51.360;7.340;2022-10-01T14:15:15;2.78;;;1.13;;
8036;SDS011;4061;51.360;7.340;2022-10-01T14:18:02;2.63;;;0.88;;
8036;SDS011;4061;51.360;7.340;2022-10-01T14:20:31;3.90;;;0.73;;
8036;SDS011;4061;51.360;7.340;2022-10-01T14:23:02;2.83;;;0.65;;
8036;SDS011;4061;51.360;7.340;2022-10-01T14:25:34;1.23;;;0.30;;
8036;SDS011;4061;51.360;7.340;2022-10-01T14:28:15;3.03;;;0.80;;
8036;SDS011;4061;51.360;7.340;2022-10-01T14:30:47;2.30;;;0.47;;
8036;SDS011;4061;51.360;7.340;2022-10-01T14:33:19;4.18;;;0.68;;
8036;SDS011;4061;51.360;7.340;2022-10-01T14:35:52;2.70;;;0.88;;
8036;SDS011;4061;51.360;7.340;2022-10-01T14:38:22;8.27;;;0.93;;
8036;SDS011;4061;51.360;7.340;2022-10-01T14:40:49;10.13;;;1.00;;
8036;SDS011;4061;51.360;7.340;2022-10-01T14:43:19;1.50;;;0.68;;
8036;SDS011;4061;51.360;7.340;2022-10-01T14:45:51;3.92;;;0.60;;
8036;SDS011;4061;51.360;7.340;2022-10-01T14:48:18;4.75;;;0.98;;
8036;SDS011;4061;51.360;7.340;2022-10-01T14:50:48;4.00;;;0.63;;
8036;SDS011;4061;51.360;7.340;2022-10-01T14:53:16;1.98;;;0.77;;
8036;SDS011;4061;51.360;7.340;2022-10-01T14:55:44;4.10;;;0.50;;
8036;SDS011;4061;51.360;7.340;2022-10-01T14:58:16;6.88;;;0.60;;
8036;SDS011;4061;51.360;7.340;2022-10-01T15:00:48;5.95;;;2.15;;
8036;SDS011;4061;51.360;7.340;2022-10-01T15:03:16;5.45;;;0.82;;
8036;SDS011;4061;51.360;7.340;2022-10-01T15:05:44;6.97;;;0.98;;
8036;SDS011;4061;51.360;7.340;2022-10-01T15:08:15;7.03;;;1.27;;
8036;SDS011;4061;51.360;7.340;2022-10-01T15:10:44;3.38;;;0.68;;
8036;SDS011;4061;51.360;7.340;2022-10-01T15:13:16;8.18;;;0.80;;
8036;SDS011;4061;51.360;7.340;2022-10-01T15:15:44;5.55;;;0.60;;
8036;SDS011;4061;51.360;7.340;2022-10-01T15:18:12;2.30;;;0.45;;
8036;SDS011;4061;51.360;7.340;2022-10-01T15:20:48;7.53;;;0.70;;
8036;SDS011;4061;51.360;7.340;2022-10-01T15:23:15;3.50;;;0.75;;
8036;SDS011;4061;51.360;7.340;2022-10-01T15:25:43;10.05;;;0.88;;
8036;SDS011;4061;51.360;7.340;2022-10-01T15:28:13;4.82;;;0.65;;
8036;SDS011;4061;51.360;7.340;2022-10-01T15:30:41;6.05;;;0.85;;